createdAt,value
2023-03-27T00:01:32.604Z,96309.75
2023-03-27T00:04:00.369Z,96300.97
2023-03-27T00:06:28.257Z,96305.56
2023-03-27T00:08:55.945Z,96299.06
2023-03-27T00:11:25.064Z,96300.78
2023-03-27T00:13:54.751Z,96290.19
2023-03-27T00:16:23.997Z,96282.03
2023-03-27T00:18:52.921Z,96270.50
2023-03-27T00:21:22.453Z,96267.03
2023-03-27T00:23:50.288Z,96269.03
2023-03-27T00:26:18.192Z,96252.56
2023-03-27T00:28:45.990Z,96252.66
2023-03-27T00:31:15.077Z,96245.09
2023-03-27T00:33:42.910Z,96233.41
2023-03-27T00:36:11.098Z,96226.97
2023-03-27T00:38:43.677Z,96239.41
2023-03-27T00:41:12.676Z,96226.09
2023-03-27T00:43:45.125Z,96225.78
2023-03-27T00:46:16.008Z,96226.59
2023-03-27T00:48:47.091Z,96233.41
2023-03-27T00:51:15.278Z,96226.41
2023-03-27T00:53:42.969Z,96221.69
2023-03-27T00:56:10.718Z,96219.00
2023-03-27T00:59:01.442Z,96217.66
2023-03-27T01:01:29.707Z,96214.97
2023-03-27T01:04:00.649Z,96206.16
2023-03-27T01:06:28.871Z,96199.72
2023-03-27T01:08:56.582Z,96201.28
2023-03-27T01:11:39.550Z,96201.25
2023-03-27T01:14:24.988Z,96189.56
2023-03-27T01:16:52.610Z,96186.84
2023-03-27T01:19:36.483Z,96185.88
2023-03-27T01:22:22.965Z,96173.53
2023-03-27T01:25:11.991Z,96185.63
2023-03-27T01:27:53.160Z,96178.00
2023-03-27T01:30:27.184Z,96161.88
2023-03-27T01:33:25.892Z,96171.38
2023-03-27T01:36:34.813Z,96156.19
2023-03-27T01:39:20.951Z,96147.00
2023-03-27T01:42:19.103Z,96143.91
2023-03-27T01:45:23.175Z,96156.81
2023-03-27T01:48:00.756Z,96135.38
2023-03-27T01:50:37.809Z,96129.25
2023-03-27T01:53:27.439Z,96131.25
2023-03-27T01:55:58.834Z,96123.22
2023-03-27T01:58:29.913Z,96115.41
2023-03-27T02:01:01.352Z,96129.53
2023-03-27T02:03:37.676Z,96123.00
2023-03-27T02:06:09.012Z,96113.13
2023-03-27T02:08:50.182Z,96111.66
2023-03-27T02:11:22.317Z,96111.59
2023-03-27T02:13:59.324Z,96116.81
2023-03-27T02:16:33.806Z,96095.50
2023-03-27T02:19:04.242Z,96100.31
2023-03-27T02:21:33.366Z,96085.34
2023-03-27T02:24:06.075Z,96083.16
2023-03-27T02:26:33.905Z,96081.03
2023-03-27T02:29:26.074Z,96083.03
2023-03-27T02:31:53.773Z,96073.53
2023-03-27T02:34:38.401Z,96071.44
2023-03-27T02:37:12.104Z,96062.78
2023-03-27T02:40:13.674Z,96052.50
2023-03-27T02:43:09.162Z,96045.81
2023-03-27T02:46:02.695Z,96039.53
2023-03-27T02:48:34.395Z,96040.63
2023-03-27T02:51:17.276Z,96026.78
2023-03-27T02:53:47.577Z,96017.75
2023-03-27T02:56:15.350Z,96029.88
2023-03-27T02:58:47.527Z,95987.19
2023-03-27T03:01:32.228Z,96017.31
2023-03-27T03:04:31.358Z,96002.97
2023-03-27T03:07:27.980Z,95998.66
2023-03-27T03:09:58.291Z,96002.41
2023-03-27T03:12:25.996Z,95996.59
2023-03-27T03:14:56.529Z,95991.31
2023-03-27T03:17:24.421Z,95989.69
2023-03-27T03:19:53.753Z,95990.81
2023-03-27T03:22:21.641Z,95986.84
2023-03-27T03:24:49.370Z,95972.28
2023-03-27T03:27:21.033Z,95971.03
2023-03-27T03:30:09.448Z,95968.66
2023-03-27T03:32:47.475Z,95959.56
2023-03-27T03:35:15.592Z,95948.84
2023-03-27T03:37:51.128Z,95947.88
2023-03-27T03:40:20.025Z,95947.00
2023-03-27T03:42:52.507Z,95943.28
2023-03-27T03:45:24.722Z,95951.50
2023-03-27T03:47:52.484Z,95937.78
2023-03-27T03:50:20.353Z,95924.78
2023-03-27T03:52:48.106Z,95922.50
2023-03-27T03:55:16.175Z,95921.78
2023-03-27T03:57:47.604Z,95912.56
2023-03-27T04:00:22.940Z,95920.13
2023-03-27T04:02:53.817Z,95924.47
2023-03-27T04:05:22.111Z,95918.41
2023-03-27T04:07:53.059Z,95930.00
2023-03-27T04:10:39.615Z,95920.19
2023-03-27T04:13:14.909Z,95916.75
2023-03-27T04:15:54.021Z,95913.09
2023-03-27T04:18:35.363Z,95913.81
2023-03-27T04:21:14.775Z,95924.56
2023-03-27T04:23:45.228Z,95930.19
2023-03-27T04:26:16.099Z,95935.84
2023-03-27T04:29:10.323Z,95934.59
2023-03-27T04:31:58.543Z,95929.72
2023-03-27T04:34:41.657Z,95937.19
2023-03-27T04:37:30.516Z,95932.66
2023-03-27T04:40:18.161Z,95932.94
2023-03-27T04:42:46.324Z,95932.50
2023-03-27T04:45:17.327Z,95915.94
2023-03-27T04:47:49.033Z,95917.31
2023-03-27T04:50:17.272Z,95915.44
2023-03-27T04:52:49.707Z,95920.94
2023-03-27T04:55:19.714Z,95924.25
2023-03-27T04:57:50.325Z,95919.13
2023-03-27T05:00:23.653Z,95914.91
2023-03-27T05:03:14.251Z,95914.56
2023-03-27T05:05:55.839Z,95895.63
2023-03-27T05:08:23.763Z,95882.31
2023-03-27T05:10:52.048Z,95889.34
2023-03-27T05:13:19.838Z,95891.72
2023-03-27T05:15:47.808Z,95880.69
2023-03-27T05:18:17.893Z,95879.22
2023-03-27T05:20:50.753Z,95877.75
2023-03-27T05:23:18.522Z,95875.19
2023-03-27T05:25:59.661Z,95883.56
2023-03-27T05:28:36.669Z,95879.56
2023-03-27T05:31:04.692Z,95874.25
2023-03-27T05:33:41.006Z,95875.09
2023-03-27T05:36:10.199Z,95864.91
2023-03-27T05:38:39.552Z,95874.94
2023-03-27T05:41:19.309Z,95868.91
2023-03-27T05:43:51.305Z,95844.50
2023-03-27T05:46:21.719Z,95845.44
2023-03-27T05:49:15.428Z,95843.81
2023-03-27T05:51:47.551Z,95847.28
2023-03-27T05:54:20.750Z,95839.91
2023-03-27T05:56:54.653Z,95830.72
2023-03-27T05:59:22.904Z,95821.81
2023-03-27T06:01:53.653Z,95810.75
2023-03-27T06:04:28.503Z,95806.94
2023-03-27T06:07:03.028Z,95814.41
2023-03-27T06:09:32.745Z,95793.63
2023-03-27T06:12:20.647Z,95766.16
2023-03-27T06:14:51.520Z,95735.72
2023-03-27T06:17:31.847Z,95721.44
2023-03-27T06:20:02.830Z,95709.97
2023-03-27T06:22:33.154Z,95692.56
2023-03-27T06:25:06.528Z,95711.09
2023-03-27T06:27:34.789Z,95698.03
2023-03-27T06:30:02.621Z,95700.09
2023-03-27T06:32:31.280Z,95697.53
2023-03-27T06:34:59.532Z,95691.28
2023-03-27T06:37:56.712Z,95682.06
2023-03-27T06:40:28.024Z,95678.00
2023-03-27T06:43:06.539Z,95681.81
2023-03-27T06:45:49.907Z,95684.75
2023-03-27T06:48:36.723Z,95682.00
2023-03-27T06:51:06.797Z,95671.22
2023-03-27T06:53:37.891Z,95674.63
2023-03-27T06:56:07.378Z,95655.72
2023-03-27T06:58:55.094Z,95657.22
2023-03-27T07:01:27.719Z,95657.59
2023-03-27T07:04:19.019Z,95665.91
2023-03-27T07:06:55.684Z,95663.22
2023-03-27T07:09:23.542Z,95654.31
2023-03-27T07:12:01.106Z,95659.56
2023-03-27T07:14:28.891Z,95651.75
2023-03-27T07:16:57.123Z,95656.97
2023-03-27T07:19:28.504Z,95650.34
2023-03-27T07:22:06.695Z,95661.47
2023-03-27T07:24:37.797Z,95660.44
2023-03-27T07:27:05.829Z,95652.81
2023-03-27T07:29:35.364Z,95653.50
2023-03-27T07:32:07.191Z,95654.31
2023-03-27T07:34:43.453Z,95639.06
2023-03-27T07:37:30.151Z,95648.38
2023-03-27T07:40:29.469Z,95648.13
2023-03-27T07:43:30.718Z,95670.31
2023-03-27T07:46:01.521Z,95664.63
2023-03-27T07:48:30.502Z,95659.97
2023-03-27T07:51:10.583Z,95650.56
2023-03-27T07:53:41.656Z,95646.84
2023-03-27T07:56:18.251Z,95656.16
2023-03-27T07:58:49.044Z,95651.59
2023-03-27T08:01:21.534Z,95656.44
2023-03-27T08:03:50.199Z,95659.94
2023-03-27T08:06:19.971Z,95656.25
2023-03-27T08:08:48.189Z,95664.91
2023-03-27T08:11:29.533Z,95660.50
2023-03-27T08:13:59.029Z,95647.84
2023-03-27T08:16:29.975Z,95623.56
2023-03-27T08:19:01.271Z,95633.09
2023-03-27T08:21:33.339Z,95626.81
2023-03-27T08:24:02.747Z,95617.63
2023-03-27T08:26:36.835Z,95619.78
2023-03-27T08:29:08.997Z,95624.28
2023-03-27T08:31:38.740Z,95618.50
2023-03-27T08:34:06.932Z,95613.91
2023-03-27T08:36:44.170Z,95599.84
2023-03-27T08:39:12.914Z,95588.50
2023-03-27T08:41:51.976Z,95596.69
2023-03-27T08:44:26.037Z,95591.34
2023-03-27T08:46:58.438Z,95572.00
2023-03-27T08:49:40.090Z,95579.72
2023-03-27T08:52:37.389Z,95562.16
2023-03-27T08:55:34.443Z,95560.50
2023-03-27T08:58:30.158Z,95559.91
2023-03-27T09:01:18.032Z,95565.16
2023-03-27T09:04:24.960Z,95577.31
2023-03-27T09:07:06.194Z,95569.03
2023-03-27T09:09:38.860Z,95560.28
2023-03-27T09:12:17.921Z,95561.97
2023-03-27T09:14:59.930Z,95571.75
2023-03-27T09:17:33.635Z,95576.09
2023-03-27T09:20:19.184Z,95585.78
2023-03-27T09:23:12.610Z,95604.16
2023-03-27T09:26:01.130Z,95598.59
2023-03-27T09:29:22.102Z,95620.41
2023-03-27T09:31:57.589Z,95629.91
2023-03-27T09:34:28.471Z,95617.97
2023-03-27T09:36:58.155Z,95614.78
2023-03-27T09:39:32.724Z,95615.41
2023-03-27T09:42:20.780Z,95614.31
2023-03-27T09:44:54.405Z,95603.06
2023-03-27T09:47:38.232Z,95609.03
2023-03-27T09:50:15.281Z,95604.53
2023-03-27T09:53:12.966Z,95602.84
2023-03-27T09:55:52.970Z,95603.78
2023-03-27T09:58:33.935Z,95580.50
2023-03-27T10:01:38.410Z,95589.66
2023-03-27T10:04:17.279Z,95591.84
2023-03-27T10:07:00.119Z,95596.47
2023-03-27T10:09:41.090Z,95601.56
2023-03-27T10:12:16.815Z,95608.78
2023-03-27T10:14:47.283Z,95600.16
2023-03-27T10:17:31.016Z,95603.38
2023-03-27T10:20:14.262Z,95598.44
2023-03-27T10:22:43.917Z,95594.56
2023-03-27T10:25:20.662Z,95596.59
2023-03-27T10:27:53.877Z,95607.19
2023-03-27T10:30:28.076Z,95601.53
2023-03-27T10:33:04.318Z,95606.34
2023-03-27T10:35:48.049Z,95620.59
2023-03-27T10:38:32.093Z,95616.91
2023-03-27T10:41:33.745Z,95618.84
2023-03-27T10:44:01.544Z,95605.56
2023-03-27T10:46:30.113Z,95613.16
2023-03-27T10:49:28.767Z,95631.16
2023-03-27T10:52:22.063Z,95627.97
2023-03-27T10:55:40.051Z,95633.44
2023-03-27T10:58:23.646Z,95626.47
2023-03-27T11:00:56.270Z,95619.78
2023-03-27T11:03:34.896Z,95631.03
2023-03-27T11:06:08.052Z,95655.66
2023-03-27T11:09:11.933Z,95622.50
2023-03-27T11:11:55.823Z,95644.63
2023-03-27T11:14:25.516Z,95636.34
2023-03-27T11:16:58.718Z,95638.97
2023-03-27T11:19:52.639Z,95643.66
2023-03-27T11:22:42.193Z,95631.97
2023-03-27T11:25:47.396Z,95612.53
2023-03-27T11:28:27.840Z,95600.69
2023-03-27T11:31:11.861Z,95580.13
2023-03-27T11:34:06.232Z,95550.63
2023-03-27T11:36:37.761Z,95541.94
2023-03-27T11:39:39.065Z,95554.19
2023-03-27T11:42:27.611Z,95543.69
2023-03-27T11:44:55.896Z,95547.78
2023-03-27T11:47:53.251Z,95545.53
2023-03-27T11:50:43.029Z,95558.59
2023-03-27T11:53:19.967Z,95554.75
2023-03-27T11:56:26.338Z,95563.50
2023-03-27T11:59:36.574Z,95570.06
2023-03-27T12:02:30.506Z,95577.44
2023-03-27T12:05:02.787Z,95613.34
2023-03-27T12:08:25.332Z,95615.03
2023-03-27T12:10:56.232Z,95616.88
2023-03-27T12:13:47.784Z,95637.88
2023-03-27T12:16:33.452Z,95637.69
2023-03-27T12:19:29.816Z,95658.44
2023-03-27T12:22:24.279Z,95665.03
2023-03-27T12:25:14.201Z,95679.81
2023-03-27T12:28:23.754Z,95699.72
2023-03-27T12:31:36.215Z,95703.91
2023-03-27T12:34:28.447Z,95717.19
2023-03-27T12:36:56.285Z,95717.28
2023-03-27T12:39:27.695Z,95720.63
2023-03-27T12:42:00.872Z,95718.09
2023-03-27T12:44:36.081Z,95728.81
2023-03-27T12:47:24.646Z,95740.06
2023-03-27T12:50:16.911Z,95736.22
2023-03-27T12:52:45.716Z,95750.53
2023-03-27T12:55:33.341Z,95748.13
2023-03-27T12:58:02.052Z,95750.81
2023-03-27T13:01:01.273Z,95753.16
2023-03-27T13:04:22.187Z,95747.16
2023-03-27T13:07:05.095Z,95753.09
2023-03-27T13:09:59.652Z,95755.81
2023-03-27T13:12:51.528Z,95741.09
2023-03-27T13:15:27.170Z,95735.09
2023-03-27T13:18:03.537Z,95728.56
2023-03-27T13:20:47.010Z,95721.41
2023-03-27T13:23:38.903Z,95704.19
2023-03-27T13:26:35.426Z,95679.38
2023-03-27T13:29:03.726Z,95643.84
2023-03-27T13:31:45.509Z,95614.56
2023-03-27T13:34:27.539Z,95626.16
2023-03-27T13:37:11.704Z,95595.16
2023-03-27T13:39:58.788Z,95584.88
2023-03-27T13:42:37.954Z,95587.75
2023-03-27T13:45:17.551Z,95567.44
2023-03-27T13:48:25.659Z,95561.47
2023-03-27T13:51:13.089Z,95548.66
2023-03-27T13:53:52.822Z,95546.56
2023-03-27T13:56:59.418Z,95528.28
2023-03-27T14:00:08.308Z,95543.69
2023-03-27T14:03:00.169Z,95559.81
2023-03-27T14:05:57.082Z,95571.22
2023-03-27T14:09:07.948Z,95590.97
2023-03-27T14:11:53.956Z,95603.63
2023-03-27T14:14:53.070Z,95615.09
2023-03-27T14:17:30.352Z,95619.53
2023-03-27T14:20:15.173Z,95619.81
2023-03-27T14:23:03.468Z,95638.13
2023-03-27T14:25:45.514Z,95659.13
2023-03-27T14:28:34.759Z,95646.66
2023-03-27T14:31:06.384Z,95650.56
2023-03-27T14:34:06.502Z,95638.31
2023-03-27T14:36:42.317Z,95625.94
2023-03-27T14:39:27.953Z,95623.28
2023-03-27T14:42:03.400Z,95623.56
2023-03-27T14:44:34.861Z,95626.38
2023-03-27T14:47:12.063Z,95628.25
2023-03-27T14:49:45.348Z,95621.81
2023-03-27T14:52:29.324Z,95636.06
2023-03-27T14:55:34.418Z,95635.66
2023-03-27T14:58:22.537Z,95632.28
2023-03-27T15:00:58.018Z,95629.97
2023-03-27T15:03:30.397Z,95629.78
2023-03-27T15:06:04.544Z,95629.78
2023-03-27T15:08:46.647Z,95627.06
2023-03-27T15:11:27.371Z,95629.34
2023-03-27T15:14:06.152Z,95634.94
2023-03-27T15:16:35.887Z,95628.59
2023-03-27T15:19:12.262Z,95610.47
2023-03-27T15:21:51.045Z,95601.69
2023-03-27T15:24:31.562Z,95597.47
2023-03-27T15:27:02.910Z,95591.66
2023-03-27T15:29:42.776Z,95599.69
2023-03-27T15:32:14.624Z,95600.34
2023-03-27T15:34:56.719Z,95601.50
2023-03-27T15:37:25.816Z,95612.13
2023-03-27T15:40:04.251Z,95620.63
2023-03-27T15:42:43.938Z,95617.03
2023-03-27T15:45:12.519Z,95610.03
2023-03-27T15:47:40.588Z,95603.38
2023-03-27T15:50:19.368Z,95610.09
2023-03-27T15:52:51.397Z,95603.66
2023-03-27T15:55:44.272Z,95606.66
2023-03-27T15:58:23.759Z,95604.63
2023-03-27T16:00:53.328Z,95615.00
2023-03-27T16:03:24.468Z,95619.41
2023-03-27T16:05:56.474Z,95613.94
2023-03-27T16:08:36.955Z,95621.69
2023-03-27T16:11:04.955Z,95614.50
2023-03-27T16:13:43.756Z,95632.03
2023-03-27T16:16:23.079Z,95632.03
2023-03-27T16:18:51.504Z,95636.66
2023-03-27T16:21:23.300Z,95642.59
2023-03-27T16:23:51.213Z,95647.25
2023-03-27T16:26:22.649Z,95654.97
2023-03-27T16:28:50.573Z,95654.72
2023-03-27T16:31:19.076Z,95651.34
2023-03-27T16:33:47.222Z,95647.22
2023-03-27T16:36:16.174Z,95655.22
2023-03-27T16:38:43.985Z,95663.72
2023-03-27T16:41:13.526Z,95663.00
2023-03-27T16:43:41.763Z,95668.13
2023-03-27T16:46:22.437Z,95663.75
2023-03-27T16:48:51.208Z,95654.97
2023-03-27T16:51:19.651Z,95656.78
2023-03-27T16:53:47.336Z,95666.53
2023-03-27T16:56:15.074Z,95665.41
2023-03-27T16:58:43.044Z,95668.34
2023-03-27T17:01:10.843Z,95669.72
2023-03-27T17:03:38.755Z,95678.13
2023-03-27T17:06:08.240Z,95683.72
2023-03-27T17:08:36.600Z,95681.13
2023-03-27T17:11:09.082Z,95684.13
2023-03-27T17:13:37.371Z,95679.38
2023-03-27T17:16:05.596Z,95683.06
2023-03-27T17:18:34.775Z,95684.91
2023-03-27T17:21:02.471Z,95691.34
2023-03-27T17:23:31.551Z,95702.56
2023-03-27T17:26:03.179Z,95709.56
2023-03-27T17:28:31.101Z,95719.38
2023-03-27T17:31:04.822Z,95721.63
2023-03-27T17:33:33.523Z,95721.69
2023-03-27T17:36:01.683Z,95714.47
2023-03-27T17:38:30.003Z,95720.88
2023-03-27T17:40:57.799Z,95728.09
2023-03-27T17:43:25.465Z,95724.53
2023-03-27T17:45:53.232Z,95729.69
2023-03-27T17:48:20.945Z,95731.59
2023-03-27T17:51:01.250Z,95723.06
2023-03-27T17:53:37.424Z,95722.91
2023-03-27T17:56:05.909Z,95721.13
2023-03-27T17:58:34.442Z,95723.13
2023-03-27T18:01:12.294Z,95733.94
2023-03-27T18:03:40.347Z,95735.53
2023-03-27T18:06:08.462Z,95743.53
2023-03-27T18:08:36.137Z,95756.53
2023-03-27T18:11:07.775Z,95758.38
2023-03-27T18:13:35.941Z,95769.25
2023-03-27T18:16:07.026Z,95789.91
2023-03-27T18:18:35.140Z,95807.63
2023-03-27T18:21:02.960Z,95821.41
2023-03-27T18:23:31.469Z,95812.84
2023-03-27T18:26:02.473Z,95821.06
2023-03-27T18:28:30.255Z,95819.50
2023-03-27T18:31:04.946Z,95834.16
2023-03-27T18:33:32.717Z,95827.81
2023-03-27T18:36:01.094Z,95829.81
2023-03-27T18:38:29.158Z,95834.00
2023-03-27T18:40:57.888Z,95831.88
2023-03-27T18:43:25.930Z,95821.53
2023-03-27T18:45:57.620Z,95819.53
2023-03-27T18:48:26.281Z,95837.06
2023-03-27T18:50:55.392Z,95838.25
2023-03-27T18:53:23.258Z,95835.69
2023-03-27T18:55:51.496Z,95846.44
2023-03-27T18:58:19.816Z,95839.69
2023-03-27T19:00:47.648Z,95839.16
2023-03-27T19:03:17.922Z,95863.41
2023-03-27T19:05:46.171Z,95856.25
2023-03-27T19:08:14.582Z,95868.44
2023-03-27T19:10:42.340Z,95868.66
2023-03-27T19:13:22.936Z,95883.47
2023-03-27T19:15:50.683Z,95878.78
2023-03-27T19:18:36.990Z,95888.91
2023-03-27T19:21:30.923Z,95901.13
2023-03-27T19:24:07.028Z,95909.75
2023-03-27T19:26:41.870Z,95915.53
2023-03-27T19:29:09.751Z,95911.59
2023-03-27T19:31:37.500Z,95918.78
2023-03-27T19:34:05.275Z,95923.09
2023-03-27T19:36:33.276Z,95906.13
2023-03-27T19:39:01.049Z,95910.41
2023-03-27T19:41:28.868Z,95917.78
2023-03-27T19:43:58.339Z,95932.59
2023-03-27T19:46:29.296Z,95925.28
2023-03-27T19:48:58.333Z,95917.91
2023-03-27T19:51:36.024Z,95922.63
2023-03-27T19:54:03.890Z,95916.25
2023-03-27T19:56:31.694Z,95916.56
2023-03-27T19:58:59.725Z,95923.66
2023-03-27T20:01:28.546Z,95915.13
2023-03-27T20:03:57.382Z,95925.41
2023-03-27T20:06:26.095Z,95930.09
2023-03-27T20:08:53.835Z,95928.59
2023-03-27T20:11:21.854Z,95925.22
2023-03-27T20:13:56.117Z,95914.97
2023-03-27T20:16:26.284Z,95921.13
2023-03-27T20:18:55.450Z,95923.28
2023-03-27T20:21:24.685Z,95914.03
2023-03-27T20:23:55.654Z,95914.84
2023-03-27T20:26:32.480Z,95923.94
2023-03-27T20:29:11.919Z,95919.38
2023-03-27T20:31:40.091Z,95923.00
2023-03-27T20:34:07.837Z,95917.25
2023-03-27T20:36:35.625Z,95921.97
2023-03-27T20:39:14.589Z,95913.72
2023-03-27T20:41:42.348Z,95926.91
2023-03-27T20:44:16.409Z,95926.66
2023-03-27T20:46:47.825Z,95938.59
2023-03-27T20:49:37.464Z,95930.47
2023-03-27T20:52:11.794Z,95938.91
2023-03-27T20:54:39.602Z,95938.53
2023-03-27T20:57:10.479Z,95934.31
2023-03-27T20:59:38.283Z,95945.22
2023-03-27T21:02:06.201Z,95936.66
2023-03-27T21:04:34.018Z,95941.41
2023-03-27T21:07:01.780Z,95939.75
2023-03-27T21:09:29.525Z,95936.50
2023-03-27T21:11:57.708Z,95940.78
2023-03-27T21:14:25.584Z,95942.63
2023-03-27T21:16:53.463Z,95943.53
2023-03-27T21:19:22.006Z,95941.44
2023-03-27T21:21:50.374Z,95951.22
2023-03-27T21:24:19.462Z,95939.84
2023-03-27T21:26:48.538Z,95943.00
2023-03-27T21:29:16.336Z,95950.38
2023-03-27T21:31:44.105Z,95950.84
2023-03-27T21:34:11.918Z,95945.53
2023-03-27T21:36:39.662Z,95942.38
2023-03-27T21:39:08.592Z,95950.16
2023-03-27T21:41:36.726Z,95948.41
2023-03-27T21:44:04.526Z,95946.09
2023-03-27T21:46:32.257Z,95954.22
2023-03-27T21:49:00.306Z,95955.13
2023-03-27T21:51:28.036Z,95960.16
2023-03-27T21:53:55.816Z,95964.28
2023-03-27T21:56:23.494Z,95960.47
2023-03-27T21:58:51.221Z,95962.84
2023-03-27T22:01:19.002Z,95963.47
2023-03-27T22:03:46.797Z,95963.34
2023-03-27T22:06:15.083Z,95965.56
2023-03-27T22:08:43.222Z,95973.28
2023-03-27T22:11:11.558Z,95975.22
2023-03-27T22:13:39.442Z,95981.50
2023-03-27T22:16:11.972Z,95987.47
2023-03-27T22:18:40.116Z,95977.94
2023-03-27T22:21:13.648Z,95991.41
2023-03-27T22:23:41.462Z,95983.19
2023-03-27T22:26:09.219Z,95985.88
2023-03-27T22:28:37.024Z,95985.19
2023-03-27T22:31:05.024Z,95981.88
2023-03-27T22:33:32.828Z,95990.69
2023-03-27T22:36:01.239Z,96002.09
2023-03-27T22:38:30.567Z,96001.69
2023-03-27T22:40:58.428Z,95995.66
2023-03-27T22:43:28.200Z,95993.56
2023-03-27T22:45:56.435Z,95998.22
2023-03-27T22:48:24.299Z,95998.88
2023-03-27T22:50:55.557Z,96006.41
2023-03-27T22:53:24.325Z,96004.47
2023-03-27T22:55:53.183Z,96019.44
2023-03-27T22:58:21.538Z,96017.28
2023-03-27T23:00:49.917Z,96013.63
2023-03-27T23:03:17.942Z,96030.41
2023-03-27T23:05:48.305Z,96026.69
2023-03-27T23:08:17.301Z,96031.06
2023-03-27T23:10:45.001Z,96039.69
2023-03-27T23:13:12.846Z,96037.91
2023-03-27T23:15:40.809Z,96040.50
2023-03-27T23:18:08.541Z,96050.81
2023-03-27T23:20:37.085Z,96053.34
2023-03-27T23:23:04.837Z,96066.66
2023-03-27T23:25:32.540Z,96058.69
2023-03-27T23:28:00.264Z,96053.19
2023-03-27T23:30:27.956Z,96050.06
2023-03-27T23:32:55.674Z,96051.84
2023-03-27T23:35:23.422Z,96050.66
2023-03-27T23:37:51.138Z,96069.84
2023-03-27T23:40:18.795Z,96064.75
2023-03-27T23:42:46.519Z,96074.56
2023-03-27T23:45:14.177Z,96063.63
2023-03-27T23:47:41.952Z,96066.88
2023-03-27T23:50:09.822Z,96056.63
2023-03-27T23:52:37.598Z,96071.63
2023-03-27T23:55:05.912Z,96071.38
2023-03-27T23:57:33.586Z,96079.13
